Time;durP1;ratioP1;P1;durP2;ratioP2;P2;SDS_P1;SDS_P2;PMS_P1;PMS_P2;Temp;Humidity;BMP_temperature;BMP_pressure;BME280_temperature;BME280_humidity;BME280_pressure;Samples;Min_cycle;Max_cycle;Signal;HPM_P1;HPM_P2
2021/09/11 00:01:42;;;;;;;4.60;4.20;;;18.30;99.90;;;;;;5079138;28;20639;-77
2021/09/11 00:04:09;;;;;;;5.15;4.65;;;18.30;99.90;;;;;;5078448;28;20230;-77
2021/09/11 00:06:36;;;;;;;4.65;4.25;;;18.40;99.90;;;;;;5079227;28;20645;-77
2021/09/11 00:09:03;;;;;;;4.70;4.30;;;18.40;99.90;;;;;;5081163;28;20275;-77
2021/09/11 00:11:31;;;;;;;5.25;4.60;;;18.40;99.90;;;;;;5085122;28;20280;-78
2021/09/11 00:13:58;;;;;;;4.07;3.78;;;18.40;99.90;;;;;;5075555;28;20594;-79
2021/09/11 00:16:25;;;;;;;5.03;4.63;;;18.40;99.90;;;;;;5076101;28;20221;-77
2021/09/11 00:18:53;;;;;;;4.93;4.53;;;18.40;99.90;;;;;;5082530;28;20780;-77
2021/09/11 00:21:20;;;;;;;5.13;4.70;;;18.40;99.90;;;;;;5075218;28;20270;-78
2021/09/11 00:23:47;;;;;;;5.05;4.55;;;18.40;99.90;;;;;;5075587;28;20225;-77
2021/09/11 00:26:14;;;;;;;4.57;4.18;;;18.40;99.90;;;;;;5089428;28;20271;-79
2021/09/11 00:28:41;;;;;;;4.60;4.20;;;18.40;99.90;;;;;;5077850;28;20772;-78
2021/09/11 00:31:09;;;;;;;5.05;4.57;;;18.40;99.90;;;;;;5077516;28;20224;-76
2021/09/11 00:33:36;;;;;;;4.78;4.38;;;18.40;99.90;;;;;;5077305;28;20320;-78
2021/09/11 00:36:05;;;;;;;5.53;4.72;;;18.40;99.90;;;;;;5079153;28;20229;-77
2021/09/11 00:38:32;;;;;;;4.43;3.85;;;18.40;99.90;;;;;;5078884;28;20879;-78
2021/09/11 00:40:59;;;;;;;4.90;4.40;;;18.40;99.90;;;;;;5080888;28;20275;-77
2021/09/11 00:43:28;;;;;;;4.68;4.28;;;18.40;99.90;;;;;;5077051;28;20230;-77
2021/09/11 00:45:55;;;;;;;4.60;4.20;;;18.40;99.90;;;;;;5077396;28;20282;-78
2021/09/11 00:48:22;;;;;;;5.38;4.55;;;18.30;99.90;;;;;;5078269;28;20271;-77
2021/09/11 00:50:49;;;;;;;4.55;4.15;;;18.30;99.90;;;;;;5079923;28;20223;-78
2021/09/11 00:53:19;;;;;;;4.70;4.30;;;18.30;99.90;;;;;;5084840;28;20228;-78
2021/09/11 00:55:47;;;;;;;5.07;4.65;;;18.30;99.90;;;;;;5083710;28;20695;-78
2021/09/11 00:58:14;;;;;;;5.20;4.80;;;18.30;99.90;;;;;;5083999;28;20233;-77
2021/09/11 01:00:41;;;;;;;5.28;4.78;;;18.20;99.90;;;;;;5077792;28;20283;-77
2021/09/11 01:03:08;;;;;;;5.13;4.63;;;18.20;99.90;;;;;;5079991;28;20764;-78
2021/09/11 01:05:35;;;;;;;5.78;4.57;;;18.20;99.90;;;;;;5082011;28;20571;-78
2021/09/11 01:08:02;;;;;;;4.93;4.43;;;18.20;99.90;;;;;;5083753;28;20247;-78
2021/09/11 01:10:31;;;;;;;4.43;4.03;;;18.20;99.90;;;;;;5082825;28;20707;-78
2021/09/11 01:13:00;;;;;;;5.75;4.90;;;18.10;99.90;;;;;;5084102;28;20232;-77
2021/09/11 01:15:35;;;;;;;4.50;4.10;;;18.20;99.90;;;;;;5082149;28;20278;-77
2021/09/11 01:18:02;;;;;;;4.93;4.50;;;18.20;99.90;;;;;;5081151;28;20226;-78
2021/09/11 01:20:30;;;;;;;5.78;4.60;;;18.20;99.90;;;;;;5084722;28;20218;-77
2021/09/11 01:22:57;;;;;;;4.70;4.30;;;18.20;99.90;;;;;;5068498;28;20226;-77
2021/09/11 01:25:26;;;;;;;4.57;4.18;;;18.20;99.90;;;;;;5069576;28;20225;-77
2021/09/11 01:27:53;;;;;;;4.57;4.13;;;18.20;99.90;;;;;;5083753;28;20599;-77
2021/09/11 01:30:22;;;;;;;4.05;3.75;;;18.20;99.90;;;;;;5083255;28;20270;-78
2021/09/11 01:32:50;;;;;;;4.32;3.92;;;18.20;99.90;;;;;;5084072;28;20926;-77
2021/09/11 01:35:18;;;;;;;4.80;4.40;;;18.20;99.90;;;;;;5085438;28;20217;-78
2021/09/11 01:37:45;;;;;;;4.50;4.10;;;18.20;99.90;;;;;;5085866;28;20279;-77
2021/09/11 01:40:12;;;;;;;4.95;4.38;;;18.20;99.90;;;;;;5080543;28;20218;-77
2021/09/11 01:42:41;;;;;;;5.18;4.78;;;18.20;99.90;;;;;;5082865;28;20266;-77
2021/09/11 01:45:11;;;;;;;4.38;3.97;;;18.20;99.90;;;;;;5077141;28;20225;-75
2021/09/11 01:47:39;;;;;;;4.43;4.13;;;18.20;99.90;;;;;;5076737;28;20225;-76
2021/09/11 01:50:08;;;;;;;5.30;4.80;;;18.20;99.90;;;;;;5082805;28;20225;-78
2021/09/11 01:52:35;;;;;;;4.50;4.15;;;18.20;99.90;;;;;;5078437;28;20221;-77
2021/09/11 01:55:04;;;;;;;4.32;4.03;;;18.20;99.90;;;;;;5079539;28;20230;-77
2021/09/11 01:57:31;;;;;;;4.28;3.88;;;18.20;99.90;;;;;;5079472;28;20589;-78
2021/09/11 01:59:59;;;;;;;4.15;3.85;;;18.20;99.90;;;;;;5076869;28;20279;-77
2021/09/11 02:02:26;;;;;;;4.50;4.20;;;18.20;99.90;;;;;;5076060;28;20222;-77
2021/09/11 02:04:53;;;;;;;4.18;3.88;;;18.20;99.90;;;;;;5081630;28;20252;-78
2021/09/11 02:07:20;;;;;;;4.50;4.10;;;18.20;99.90;;;;;;5084726;28;20279;-79
2021/09/11 02:09:47;;;;;;;4.50;4.13;;;18.20;99.90;;;;;;5083863;28;20225;-77
2021/09/11 02:12:14;;;;;;;4.90;4.38;;;18.10;99.90;;;;;;5083602;28;20233;-78
2021/09/11 02:14:41;;;;;;;4.53;4.20;;;18.10;99.90;;;;;;5078451;28;20237;-77
2021/09/11 02:17:10;;;;;;;5.38;4.57;;;18.10;99.90;;;;;;5083913;28;20283;-78
2021/09/11 02:19:37;;;;;;;4.97;4.57;;;18.10;99.90;;;;;;5084311;28;20225;-77
2021/09/11 02:22:06;;;;;;;5.45;4.45;;;18.00;99.90;;;;;;5082542;28;21855;-78
2021/09/11 02:24:33;;;;;;;4.43;4.13;;;18.00;99.90;;;;;;5076562;28;20226;-78
2021/09/11 02:27:00;;;;;;;4.68;4.30;;;18.00;99.90;;;;;;5077017;28;20237;-77
2021/09/11 02:29:27;;;;;;;4.88;4.47;;;17.90;99.90;;;;;;5076319;28;20699;-77
2021/09/11 02:31:54;;;;;;;4.53;4.22;;;17.90;99.90;;;;;;5078826;28;20217;-78
2021/09/11 02:34:23;;;;;;;5.40;4.75;;;17.90;99.90;;;;;;5079509;28;20229;-78
2021/09/11 02:36:50;;;;;;;5.25;4.75;;;17.90;99.90;;;;;;5081017;28;20221;-78
2021/09/11 02:39:17;;;;;;;5.28;4.78;;;17.90;99.90;;;;;;5080994;28;20210;-78
2021/09/11 02:41:44;;;;;;;5.10;4.60;;;17.90;99.90;;;;;;5076849;28;20287;-78
2021/09/11 02:44:11;;;;;;;4.88;4.40;;;17.90;99.90;;;;;;5080068;28;20351;-77
2021/09/11 02:46:39;;;;;;;5.32;4.60;;;17.90;99.90;;;;;;5077419;28;20280;-77
2021/09/11 02:49:06;;;;;;;5.95;5.07;;;17.90;99.90;;;;;;5077802;28;20221;-78
2021/09/11 02:51:34;;;;;;;6.07;5.47;;;17.90;99.90;;;;;;5081919;28;20267;-78
2021/09/11 02:54:02;;;;;;;5.40;4.93;;;17.80;99.90;;;;;;5080580;28;20237;-78
2021/09/11 02:56:29;;;;;;;4.72;4.32;;;17.80;99.90;;;;;;5079327;28;20226;-77
2021/09/11 02:58:56;;;;;;;5.55;4.18;;;17.80;99.90;;;;;;5084746;28;20225;-78
2021/09/11 03:01:24;;;;;;;4.90;4.38;;;17.70;99.90;;;;;;5081592;28;20217;-78
2021/09/11 03:03:51;;;;;;;4.95;4.50;;;17.70;99.90;;;;;;5084269;28;20217;-78
2021/09/11 03:06:18;;;;;;;4.57;4.18;;;17.80;99.90;;;;;;5083394;28;20218;-78
2021/09/11 03:08:47;;;;;;;5.32;4.85;;;17.80;99.90;;;;;;5078250;28;20229;-77
2021/09/11 03:11:14;;;;;;;5.07;4.68;;;17.90;99.90;;;;;;5079242;28;20233;-78
2021/09/11 03:13:42;;;;;;;4.90;4.50;;;17.90;99.90;;;;;;5080856;28;20241;-78
2021/09/11 03:16:09;;;;;;;5.15;4.65;;;17.90;99.90;;;;;;5078135;28;20222;-77
2021/09/11 03:18:37;;;;;;;5.00;4.60;;;17.90;99.90;;;;;;5082149;28;20227;-78
2021/09/11 03:21:04;;;;;;;4.47;4.13;;;17.90;99.90;;;;;;5080372;28;20221;-78
2021/09/11 03:23:31;;;;;;;5.25;4.75;;;17.80;99.90;;;;;;5075107;28;20278;-77
2021/09/11 03:25:59;;;;;;;4.63;4.30;;;17.80;99.90;;;;;;5079134;28;20230;-77
2021/09/11 03:28:27;;;;;;;4.85;4.45;;;17.80;99.90;;;;;;5078652;28;20234;-77
2021/09/11 03:30:54;;;;;;;5.15;4.68;;;17.80;99.90;;;;;;5078578;28;20218;-77
2021/09/11 03:33:21;;;;;;;4.97;4.57;;;17.80;99.90;;;;;;5083207;28;20224;-79
2021/09/11 03:35:49;;;;;;;5.15;4.68;;;17.80;99.90;;;;;;5078215;28;20287;-78
2021/09/11 03:38:16;;;;;;;5.18;4.68;;;17.80;99.90;;;;;;5079478;28;20222;-78
2021/09/11 03:40:43;;;;;;;5.45;4.95;;;17.70;99.90;;;;;;5079333;28;20225;-77
2021/09/11 03:43:11;;;;;;;5.10;4.68;;;17.70;99.90;;;;;;5077045;28;20646;-79
2021/09/11 03:45:38;;;;;;;4.90;4.47;;;17.70;99.90;;;;;;5063247;28;20225;-76
2021/09/11 03:48:05;;;;;;;4.93;4.53;;;17.70;99.90;;;;;;5081887;28;20228;-76
2021/09/11 03:50:33;;;;;;;5.07;4.68;;;17.70;99.90;;;;;;5078197;28;20768;-76
2021/09/11 03:53:00;;;;;;;5.00;4.60;;;17.70;99.90;;;;;;5079036;28;20719;-76
2021/09/11 03:55:27;;;;;;;5.05;4.65;;;17.70;99.90;;;;;;5077422;28;20222;-76
2021/09/11 03:57:54;;;;;;;5.15;4.75;;;17.70;99.90;;;;;;5075425;28;20259;-76
2021/09/11 04:00:23;;;;;;;4.85;4.45;;;17.70;99.90;;;;;;5082883;28;20248;-78
2021/09/11 04:02:50;;;;;;;5.43;4.65;;;17.70;99.90;;;;;;5084273;28;20232;-75
2021/09/11 04:05:17;;;;;;;5.13;4.72;;;17.70;99.90;;;;;;5080870;28;20221;-76
2021/09/11 04:07:44;;;;;;;4.97;4.53;;;17.70;99.90;;;;;;5077090;28;24137;-75
2021/09/11 04:10:11;;;;;;;4.38;3.97;;;17.60;99.90;;;;;;5078536;28;20775;-76
2021/09/11 04:12:38;;;;;;;5.32;4.82;;;17.60;99.90;;;;;;5081959;28;20331;-76
2021/09/11 04:15:06;;;;;;;4.55;4.18;;;17.60;99.90;;;;;;5076841;28;20221;-76
2021/09/11 04:17:35;;;;;;;5.85;5.22;;;17.50;99.90;;;;;;5074008;28;20597;-76
2021/09/11 04:20:02;;;;;;;4.63;4.22;;;17.60;99.90;;;;;;5078902;28;20225;-75
2021/09/11 04:22:29;;;;;;;5.00;4.60;;;17.60;99.90;;;;;;5081644;28;20243;-78
2021/09/11 04:24:56;;;;;;;5.35;4.85;;;17.60;99.90;;;;;;5082534;28;20223;-78
2021/09/11 04:27:23;;;;;;;5.45;5.00;;;17.50;99.90;;;;;;5081140;28;20340;-78
2021/09/11 04:29:51;;;;;;;5.32;4.78;;;17.50;99.90;;;;;;5085139;28;20366;-79
2021/09/11 04:32:18;;;;;;;5.43;4.85;;;17.50;99.90;;;;;;5082219;28;20232;-78
2021/09/11 04:34:46;;;;;;;5.43;5.03;;;17.40;99.90;;;;;;5081199;28;20287;-78
2021/09/11 04:37:13;;;;;;;4.90;4.50;;;17.40;99.90;;;;;;5080152;28;20225;-76
2021/09/11 04:39:40;;;;;;;5.38;4.88;;;17.40;99.90;;;;;;5076614;28;20569;-76
2021/09/11 04:42:07;;;;;;;5.40;4.97;;;17.40;99.90;;;;;;5077618;28;20225;-77
2021/09/11 04:44:34;;;;;;;5.47;5.03;;;17.40;99.90;;;;;;5070766;28;20217;-77
2021/09/11 04:47:01;;;;;;;5.63;5.13;;;17.40;99.90;;;;;;5077513;28;20306;-76
2021/09/11 04:49:28;;;;;;;5.45;4.97;;;17.30;99.90;;;;;;5078094;28;20662;-77
2021/09/11 04:51:56;;;;;;;5.32;4.82;;;17.30;99.90;;;;;;5077221;28;20290;-76
2021/09/11 04:54:23;;;;;;;5.57;5.07;;;17.30;99.90;;;;;;5091029;28;20235;-78
2021/09/11 04:56:50;;;;;;;5.88;4.70;;;17.40;99.90;;;;;;5075188;28;20217;-77
2021/09/11 04:59:17;;;;;;;5.68;5.18;;;17.40;99.90;;;;;;5079537;28;20217;-77
2021/09/11 05:01:44;;;;;;;5.20;4.78;;;17.40;99.90;;;;;;5078686;28;20299;-76
2021/09/11 05:04:11;;;;;;;5.10;4.68;;;17.50;99.90;;;;;;5080731;28;20569;-76
2021/09/11 05:06:38;;;;;;;5.45;4.95;;;17.50;99.90;;;;;;5077589;28;20323;-76
2021/09/11 05:09:07;;;;;;;5.05;4.63;;;17.50;99.90;;;;;;5084016;28;20696;-76
2021/09/11 05:11:34;;;;;;;4.75;4.35;;;17.50;99.90;;;;;;5078916;28;20286;-76
2021/09/11 05:14:01;;;;;;;5.30;4.80;;;17.50;99.90;;;;;;5075641;28;22156;-76
2021/09/11 05:16:28;;;;;;;5.18;4.78;;;17.60;99.90;;;;;;5079153;28;20230;-76
2021/09/11 05:18:55;;;;;;;4.90;4.50;;;17.60;99.90;;;;;;5080068;28;20217;-76
2021/09/11 05:21:23;;;;;;;5.03;4.63;;;17.60;99.90;;;;;;5081709;28;20278;-77
2021/09/11 05:23:50;;;;;;;4.95;4.55;;;17.60;99.90;;;;;;5079309;28;20679;-76
2021/09/11 05:26:18;;;;;;;5.32;4.85;;;17.70;99.90;;;;;;5078258;28;20229;-76
2021/09/11 05:28:45;;;;;;;4.70;4.28;;;17.80;99.90;;;;;;5077207;28;20278;-76
2021/09/11 05:31:12;;;;;;;5.50;5.00;;;17.90;99.90;;;;;;5075510;28;20230;-76
2021/09/11 05:33:39;;;;;;;5.63;4.95;;;18.00;99.90;;;;;;5078109;28;20699;-77
2021/09/11 05:36:06;;;;;;;4.78;4.38;;;18.20;99.90;;;;;;5079529;28;20244;-77
2021/09/11 05:38:34;;;;;;;5.07;4.60;;;18.30;99.90;;;;;;5085883;28;20217;-77
2021/09/11 05:41:01;;;;;;;5.45;4.85;;;18.40;99.90;;;;;;5084993;28;20234;-78
2021/09/11 05:43:30;;;;;;;6.53;5.82;;;18.50;99.90;;;;;;5075801;28;20230;-77
2021/09/11 05:45:57;;;;;;;5.43;5.03;;;18.50;99.90;;;;;;5083010;28;20226;-76
2021/09/11 05:48:24;;;;;;;6.47;5.97;;;18.50;99.90;;;;;;5083425;28;20244;-77
2021/09/11 05:50:51;;;;;;;5.57;5.13;;;18.60;99.90;;;;;;5097676;28;20224;-77
2021/09/11 05:53:19;;;;;;;5.47;5.07;;;18.70;99.90;;;;;;5077163;28;20234;-77
2021/09/11 05:55:46;;;;;;;5.40;4.93;;;18.90;99.90;;;;;;5078830;28;20787;-75
2021/09/11 05:58:13;;;;;;;5.90;5.30;;;19.10;99.90;;;;;;5077523;28;20221;-76
2021/09/11 06:00:42;;;;;;;7.45;5.45;;;19.30;99.90;;;;;;5080138;28;20218;-76
2021/09/11 06:03:09;;;;;;;6.18;5.68;;;19.60;99.90;;;;;;5077048;28;20304;-76
2021/09/11 06:05:36;;;;;;;6.15;5.55;;;19.80;99.90;;;;;;5078752;28;20221;-76
2021/09/11 06:08:03;;;;;;;6.13;5.63;;;19.90;99.90;;;;;;5083666;28;20830;-78
2021/09/11 06:10:30;;;;;;;6.63;6.03;;;19.90;99.90;;;;;;5080624;28;20230;-78
2021/09/11 06:12:59;;;;;;;7.07;6.47;;;19.90;99.90;;;;;;5077203;28;20238;-78
2021/09/11 06:15:26;;;;;;;7.15;6.55;;;19.80;99.90;;;;;;5083642;28;20229;-78
2021/09/11 06:17:55;;;;;;;6.82;6.20;;;19.80;99.90;;;;;;5082254;28;20271;-78
2021/09/11 06:20:22;;;;;;;7.07;6.38;;;20.00;99.90;;;;;;5081896;28;20617;-75
2021/09/11 06:22:49;;;;;;;6.70;6.10;;;20.20;99.90;;;;;;5086681;28;20221;-78
2021/09/11 06:25:17;;;;;;;7.78;6.38;;;20.30;99.90;;;;;;5083303;28;20643;-80
2021/09/11 06:27:44;;;;;;;7.28;6.68;;;20.30;99.90;;;;;;5085639;28;20278;-75
2021/09/11 06:30:12;;;;;;;7.18;6.50;;;20.30;99.90;;;;;;5081832;28;20287;-79
2021/09/11 06:32:40;;;;;;;6.85;6.25;;;20.40;99.90;;;;;;5082668;28;20225;-78
2021/09/11 06:35:08;;;;;;;6.60;6.00;;;20.40;99.90;;;;;;5082626;28;20229;-78
2021/09/11 06:37:35;;;;;;;6.60;6.00;;;20.40;99.90;;;;;;5086311;28;20267;-77
2021/09/11 06:40:03;;;;;;;7.07;6.47;;;20.30;99.90;;;;;;5080719;28;20230;-78
2021/09/11 06:42:30;;;;;;;7.07;6.40;;;20.30;99.90;;;;;;5083790;28;20233;-78
2021/09/11 06:44:57;;;;;;;7.38;6.72;;;20.40;99.90;;;;;;5080862;28;20726;-79
2021/09/11 06:47:24;;;;;;;7.80;7.00;;;20.60;99.90;;;;;;5097187;28;20218;-78
2021/09/11 06:49:51;;;;;;;7.25;6.65;;;20.70;99.90;;;;;;5086174;28;20233;-79
2021/09/11 06:52:20;;;;;;;8.95;7.20;;;20.70;99.90;;;;;;5079978;28;20233;-78
2021/09/11 06:54:47;;;;;;;7.60;6.88;;;20.80;99.90;;;;;;5079000;28;20229;-78
2021/09/11 06:57:14;;;;;;;6.63;6.03;;;20.90;99.90;;;;;;5082334;28;20290;-79
2021/09/11 06:59:41;;;;;;;6.78;6.07;;;21.20;99.90;;;;;;5083676;28;20218;-79
2021/09/11 07:02:08;;;;;;;9.00;6.53;;;21.60;99.90;;;;;;5084170;28;20221;-79
2021/09/11 07:04:35;;;;;;;7.25;6.65;;;21.80;99.90;;;;;;5084337;28;20707;-78
2021/09/11 07:07:03;;;;;;;9.05;7.18;;;21.80;99.90;;;;;;5077166;28;20226;-78
2021/09/11 07:09:31;;;;;;;6.88;6.30;;;21.70;99.90;;;;;;5083915;28;20363;-78
2021/09/11 07:11:58;;;;;;;6.68;6.07;;;22.00;99.90;;;;;;5083626;28;20234;-77
2021/09/11 07:14:25;;;;;;;6.78;6.18;;;22.30;99.90;;;;;;5081514;28;20279;-78
2021/09/11 07:16:52;;;;;;;7.30;6.38;;;22.50;99.90;;;;;;5078750;28;20225;-78
2021/09/11 07:19:19;;;;;;;7.60;6.30;;;22.30;99.90;;;;;;5076008;28;20226;-78
2021/09/11 07:21:46;;;;;;;6.93;6.25;;;21.90;99.90;;;;;;5081176;28;20224;-78
2021/09/11 07:24:14;;;;;;;7.75;6.95;;;21.50;99.90;;;;;;5078876;28;20217;-79
2021/09/11 07:26:42;;;;;;;6.80;6.20;;;21.50;99.90;;;;;;5080282;28;20217;-77
2021/09/11 07:29:09;;;;;;;6.30;5.78;;;21.50;99.90;;;;;;5077517;28;20229;-79
2021/09/11 07:31:36;;;;;;;6.50;5.85;;;21.70;99.90;;;;;;5082291;28;20222;-78
2021/09/11 07:34:03;;;;;;;7.22;6.53;;;22.00;99.90;;;;;;5082315;28;20237;-78
2021/09/11 07:36:30;;;;;;;8.07;7.32;;;22.20;99.90;;;;;;5081338;28;20274;-77
2021/09/11 07:38:57;;;;;;;7.13;6.43;;;22.30;99.90;;;;;;5079426;28;22521;-78
2021/09/11 07:41:24;;;;;;;9.13;6.95;;;22.30;99.90;;;;;;5083420;28;20217;-78
2021/09/11 07:43:53;;;;;;;7.45;6.75;;;22.40;99.90;;;;;;5081435;28;20279;-78
2021/09/11 07:46:20;;;;;;;8.10;7.30;;;22.40;99.90;;;;;;5074372;28;20278;-76
2021/09/11 07:48:47;;;;;;;7.28;6.57;;;22.30;99.90;;;;;;5066600;28;20582;-78
2021/09/11 07:51:14;;;;;;;7.88;7.18;;;22.40;99.90;;;;;;5072649;28;20221;-77
2021/09/11 07:53:41;;;;;;;8.05;7.25;;;22.40;99.90;;;;;;5073856;28;20229;-77
2021/09/11 07:56:08;;;;;;;8.05;7.35;;;22.30;99.90;;;;;;5065878;28;20335;-77
2021/09/11 07:58:35;;;;;;;7.28;6.57;;;22.40;99.90;;;;;;5054628;28;20285;-74
2021/09/11 08:01:04;;;;;;;7.15;6.45;;;22.50;99.90;;;;;;5069460;28;20302;-78
2021/09/11 08:03:31;;;;;;;7.18;6.47;;;22.70;99.90;;;;;;5070070;28;20229;-78
2021/09/11 08:05:59;;;;;;;7.35;6.65;;;22.80;99.90;;;;;;5067487;28;20714;-77
2021/09/11 08:08:28;;;;;;;8.00;7.20;;;23.00;99.90;;;;;;5062334;28;20312;-79
2021/09/11 08:10:55;;;;;;;7.63;6.93;;;23.10;99.90;;;;;;5067861;28;20344;-77
2021/09/11 08:13:22;;;;;;;9.45;7.40;;;23.20;99.90;;;;;;5069549;28;20317;-76
2021/09/11 08:15:49;;;;;;;8.90;7.90;;;23.20;99.90;;;;;;5065427;28;20287;-76
2021/09/11 08:18:17;;;;;;;8.55;7.05;;;23.00;99.90;;;;;;5062998;28;20306;-75
2021/09/11 08:20:44;;;;;;;7.97;7.18;;;23.00;99.90;;;;;;5066322;28;20236;-77
2021/09/11 08:23:12;;;;;;;6.75;6.15;;;23.10;99.90;;;;;;5065205;28;20225;-77
2021/09/11 08:25:39;;;;;;;7.65;6.97;;;23.20;99.90;;;;;;5064775;28;20857;-77
2021/09/11 08:28:06;;;;;;;7.32;6.63;;;23.30;99.90;;;;;;5066127;28;20224;-77
2021/09/11 08:30:33;;;;;;;6.90;6.30;;;23.40;99.90;;;;;;5061736;28;20226;-76
2021/09/11 08:33:00;;;;;;;7.70;6.90;;;23.40;99.90;;;;;;5067403;28;20237;-75
2021/09/11 08:35:28;;;;;;;8.15;7.07;;;23.40;99.90;;;;;;5062236;28;20225;-73
2021/09/11 08:37:55;;;;;;;6.75;6.15;;;23.40;99.90;;;;;;5068626;28;20220;-73
2021/09/11 08:40:23;;;;;;;8.18;7.03;;;23.50;99.90;;;;;;5068461;28;20218;-74
2021/09/11 08:42:50;;;;;;;7.45;6.45;;;23.70;99.90;;;;;;5064425;28;20225;-72
2021/09/11 08:45:17;;;;;;;7.22;6.60;;;23.90;99.90;;;;;;5062568;28;20256;-76
2021/09/11 08:47:45;;;;;;;8.30;7.05;;;23.90;99.90;;;;;;5061917;28;20294;-74
2021/09/11 08:50:13;;;;;;;7.80;6.80;;;24.00;99.90;;;;;;5063537;28;20232;-75
2021/09/11 08:52:43;;;;;;;6.53;6.03;;;24.10;99.90;;;;;;5064510;28;20213;-77
2021/09/11 08:55:11;;;;;;;10.02;7.18;;;24.60;99.90;;;;;;5072039;28;20232;-77
2021/09/11 08:57:45;;;;;;;8.07;7.28;;;24.70;99.90;;;;;;5062721;28;20225;-77
2021/09/11 09:00:13;;;;;;;7.18;6.55;;;24.90;99.90;;;;;;5069137;28;21690;-76
2021/09/11 09:02:40;;;;;;;8.82;6.97;;;25.00;99.90;;;;;;5060979;28;20213;-77
2021/09/11 09:05:10;;;;;;;7.53;6.90;;;25.00;99.90;;;;;;5069457;28;20221;-77
2021/09/11 09:07:39;;;;;;;6.63;6.00;;;24.90;99.90;;;;;;5063602;28;20214;-77
2021/09/11 09:10:11;;;;;;;7.80;6.82;;;25.00;99.90;;;;;;5074012;28;20225;-76
2021/09/11 09:12:41;;;;;;;7.70;6.90;;;25.20;99.90;;;;;;5072563;28;20214;-77
2021/09/11 09:15:09;;;;;;;7.00;6.30;;;25.20;99.90;;;;;;5070691;28;20676;-76
2021/09/11 09:17:42;;;;;;;6.82;6.13;;;25.30;99.90;;;;;;5067904;28;20721;-76
2021/09/11 09:20:18;;;;;;;7.75;6.43;;;25.60;99.90;;;;;;5068599;28;20222;-76
2021/09/11 09:22:46;;;;;;;7.70;6.47;;;25.70;99.90;;;;;;5069627;28;20240;-76
2021/09/11 09:25:29;;;;;;;7.97;7.03;;;25.70;99.90;;;;;;5071174;28;20250;-76
2021/09/11 09:27:59;;;;;;;7.43;6.60;;;25.50;99.90;;;;;;5071460;28;20213;-75
2021/09/11 09:30:37;;;;;;;7.47;6.80;;;25.60;99.90;;;;;;5070804;28;20230;-76
2021/09/11 09:33:04;;;;;;;7.35;5.65;;;25.50;99.90;;;;;;5072667;28;20221;-76
2021/09/11 09:35:31;;;;;;;7.07;6.38;;;25.60;99.90;;;;;;5069890;28;20225;-76
2021/09/11 09:38:00;;;;;;;6.00;5.50;;;25.80;99.90;;;;;;5066204;28;20926;-77
2021/09/11 09:40:41;;;;;;;6.60;6.00;;;26.20;99.90;;;;;;5068422;28;22531;-76
2021/09/11 09:43:10;;;;;;;7.90;7.25;;;26.30;99.90;;;;;;5067767;28;20537;-77
2021/09/11 09:45:38;;;;;;;7.00;6.28;;;26.20;99.90;;;;;;5065358;28;20233;-77
2021/09/11 09:48:08;;;;;;;7.47;6.78;;;26.30;99.90;;;;;;5069933;28;21513;-76
2021/09/11 09:50:36;;;;;;;8.65;7.70;;;26.40;99.90;;;;;;5067845;28;20221;-77
2021/09/11 09:53:04;;;;;;;7.15;6.47;;;26.40;99.90;;;;;;5067554;28;20947;-76
2021/09/11 09:55:32;;;;;;;7.28;6.57;;;26.00;99.90;;;;;;5069965;28;22160;-76
2021/09/11 09:58:01;;;;;;;7.90;6.35;;;26.00;99.90;;;;;;5068003;28;20241;-77
2021/09/11 10:00:29;;;;;;;7.53;6.93;;;26.10;99.90;;;;;;5068714;28;20406;-76
2021/09/11 10:02:56;;;;;;;8.25;6.40;;;26.20;99.90;;;;;;5069660;28;20224;-77
2021/09/11 10:05:25;;;;;;;7.50;6.75;;;26.10;99.90;;;;;;5071560;28;20237;-77
2021/09/11 10:08:00;;;;;;;6.88;6.25;;;26.10;99.90;;;;;;5068872;28;20218;-75
2021/09/11 10:10:32;;;;;;;7.95;7.15;;;26.00;99.90;;;;;;5069989;28;20235;-77
2021/09/11 10:13:12;;;;;;;7.53;6.72;;;26.10;99.90;;;;;;5068803;28;20220;-77
2021/09/11 10:15:51;;;;;;;7.32;6.72;;;26.20;99.90;;;;;;5069777;28;20217;-76
2021/09/11 10:18:41;;;;;;;7.00;6.15;;;26.40;99.90;;;;;;5064655;28;20228;-76
2021/09/11 10:21:22;;;;;;;6.57;5.97;;;26.50;99.90;;;;;;5067481;28;20222;-76
2021/09/11 10:24:26;;;;;;;7.07;6.47;;;26.70;99.90;;;;;;5070013;28;20331;-76
2021/09/11 10:26:54;;;;;;;7.40;6.70;;;27.10;99.90;;;;;;5072377;28;20284;-77
2021/09/11 10:29:51;;;;;;;7.45;6.70;;;27.10;99.90;;;;;;5069643;28;20651;-78
2021/09/11 10:32:23;;;;;;;7.18;6.57;;;27.10;99.90;;;;;;5068107;28;20407;-76
2021/09/11 10:34:54;;;;;;;7.13;6.53;;;27.00;99.90;;;;;;5063860;28;20233;-77
2021/09/11 10:37:32;;;;;;;8.40;6.30;;;27.10;99.90;;;;;;5069432;28;20229;-76
2021/09/11 10:40:20;;;;;;;6.90;6.30;;;27.30;99.90;;;;;;5064112;28;20218;-76
2021/09/11 10:43:31;;;;;;;6.93;6.32;;;27.50;99.90;;;;;;5067223;28;20224;-76
2021/09/11 10:46:08;;;;;;;6.57;5.72;;;27.60;99.90;;;;;;5065746;28;20232;-77
2021/09/11 10:48:56;;;;;;;5.82;5.38;;;27.50;99.90;;;;;;5068586;28;20217;-77
2021/09/11 10:51:33;;;;;;;9.50;6.25;;;27.70;99.90;;;;;;5065979;28;20302;-77
2021/09/11 10:54:04;;;;;;;7.95;5.90;;;27.80;99.90;;;;;;5066189;28;20377;-76
2021/09/11 10:56:33;;;;;;;7.45;6.75;;;27.90;99.90;;;;;;5067013;28;20219;-77
2021/09/11 10:59:32;;;;;;;6.53;6.03;;;27.80;99.90;;;;;;5067928;28;20237;-77
2021/09/11 11:02:34;;;;;;;6.68;6.10;;;27.90;99.90;;;;;;5065716;28;20950;-76
2021/09/11 11:05:05;;;;;;;7.05;6.43;;;28.20;99.90;;;;;;5066990;28;20226;-76
2021/09/11 11:07:34;;;;;;;6.82;6.28;;;28.40;99.90;;;;;;5068601;28;20240;-79
2021/09/11 11:10:03;;;;;;;7.18;6.53;;;28.50;99.90;;;;;;5070492;28;20229;-77
2021/09/11 11:12:32;;;;;;;5.88;5.30;;;28.30;99.90;;;;;;5073228;28;20217;-78
2021/09/11 11:15:02;;;;;;;6.93;5.90;;;27.90;99.90;;;;;;5070806;28;20229;-78
2021/09/11 11:17:31;;;;;;;6.18;5.68;;;27.60;99.90;;;;;;5070770;28;20968;-78
2021/09/11 11:19:59;;;;;;;6.57;5.90;;;27.70;99.90;;;;;;5070109;28;20231;-77
2021/09/11 11:22:30;;;;;;;6.68;5.97;;;27.90;99.90;;;;;;5071147;28;20217;-78
2021/09/11 11:24:58;;;;;;;6.72;6.10;;;28.00;99.90;;;;;;5053973;28;20237;-78
2021/09/11 11:27:27;;;;;;;7.05;6.20;;;28.30;99.90;;;;;;5071309;28;20229;-77
2021/09/11 11:29:56;;;;;;;6.90;5.28;;;28.30;99.90;;;;;;5068456;28;20286;-77
2021/09/11 11:32:26;;;;;;;6.38;5.88;;;28.40;99.90;;;;;;5067209;28;20526;-78
2021/09/11 11:34:59;;;;;;;7.18;6.47;;;28.50;99.90;;;;;;5068531;28;20210;-77
2021/09/11 11:37:27;;;;;;;6.60;6.10;;;28.40;99.90;;;;;;5074900;28;20221;-77
2021/09/11 11:39:55;;;;;;;7.68;6.18;;;28.50;99.90;;;;;;5070660;28;20217;-77
2021/09/11 11:42:25;;;;;;;6.93;6.32;;;28.50;99.90;;;;;;5071246;28;20228;-78
2021/09/11 11:44:54;;;;;;;6.72;6.03;;;28.50;99.90;;;;;;5061965;28;20299;-78
2021/09/11 11:47:38;;;;;;;6.65;6.10;;;28.40;99.90;;;;;;5070096;28;20213;-80
2021/09/11 11:50:16;;;;;;;6.03;5.53;;;28.40;99.90;;;;;;5070287;28;20205;-79
2021/09/11 11:52:43;;;;;;;5.90;5.47;;;28.50;99.90;;;;;;5071098;28;20240;-78
2021/09/11 11:55:12;;;;;;;6.10;5.53;;;28.70;99.90;;;;;;5068117;28;20233;-80
2021/09/11 11:57:39;;;;;;;5.93;5.43;;;28.80;99.90;;;;;;5068150;28;20229;-78
2021/09/11 12:00:09;;;;;;;6.20;5.60;;;28.70;99.90;;;;;;5070411;28;20283;-78
2021/09/11 12:02:38;;;;;;;6.80;6.10;;;28.80;99.90;;;;;;5070596;28;20224;-78
2021/09/11 12:05:17;;;;;;;5.82;5.32;;;28.70;99.90;;;;;;5071337;28;20221;-79
2021/09/11 12:07:54;;;;;;;6.22;5.68;;;28.80;99.90;;;;;;5070431;28;20576;-79
2021/09/11 12:10:22;;;;;;;7.85;5.88;;;28.90;99.90;;;;;;5075072;28;20637;-79
2021/09/11 12:12:51;;;;;;;6.82;6.10;;;28.90;99.90;;;;;;5070639;28;20301;-79
2021/09/11 12:15:23;;;;;;;6.55;5.82;;;29.20;99.90;;;;;;5068628;28;20225;-77
2021/09/11 12:18:09;;;;;;;6.60;5.95;;;29.20;99.90;;;;;;5065493;28;20218;-79
2021/09/11 12:20:44;;;;;;;7.25;6.03;;;29.20;99.90;;;;;;5068015;28;20713;-79
2021/09/11 12:23:17;;;;;;;6.45;5.40;;;29.30;99.90;;;;;;5069826;28;20244;-78
2021/09/11 12:25:55;;;;;;;6.00;5.50;;;29.50;99.90;;;;;;5072510;28;20225;-79
2021/09/11 12:28:41;;;;;;;6.32;5.53;;;29.50;99.90;;;;;;5067779;28;20675;-77
2021/09/11 12:31:16;;;;;;;5.40;4.90;;;29.30;99.90;;;;;;5062444;28;20234;-78
2021/09/11 12:33:50;;;;;;;5.80;5.30;;;29.40;99.90;;;;;;5064138;28;20585;-79
2021/09/11 12:36:27;;;;;;;5.85;5.35;;;29.50;99.90;;;;;;5066625;28;20578;-79
2021/09/11 12:38:56;;;;;;;5.68;4.80;;;29.50;99.90;;;;;;5069011;28;20599;-78
2021/09/11 12:41:23;;;;;;;5.80;5.30;;;29.50;99.90;;;;;;5070605;28;20230;-78
2021/09/11 12:43:51;;;;;;;5.18;4.65;;;29.30;99.90;;;;;;5066077;28;20225;-76
2021/09/11 12:46:28;;;;;;;5.63;5.13;;;29.00;99.90;;;;;;5073853;28;20220;-79
2021/09/11 12:48:57;;;;;;;5.25;4.85;;;28.80;99.90;;;;;;5068817;28;20205;-80
2021/09/11 12:51:26;;;;;;;4.97;4.57;;;28.80;99.90;;;;;;5044649;28;20224;-78
2021/09/11 12:53:53;;;;;;;5.30;4.80;;;28.90;99.90;;;;;;5074205;28;20228;-78
2021/09/11 12:56:23;;;;;;;5.78;5.18;;;29.00;99.90;;;;;;5070140;28;20225;-78
2021/09/11 12:58:52;;;;;;;5.03;4.63;;;29.10;99.90;;;;;;5075761;28;20220;-79